createdAt,value
2018-08-03T00:00:33.527Z,20.91
2018-08-03T00:03:02.141Z,20.98
2018-08-03T00:05:30.660Z,20.93
2018-08-03T00:07:59.246Z,20.88
2018-08-03T00:10:27.835Z,20.95
2018-08-03T00:12:56.489Z,20.72
2018-08-03T00:15:25.140Z,20.68
2018-08-03T00:17:53.657Z,20.84
2018-08-03T00:20:22.193Z,20.71
2018-08-03T00:22:51.055Z,20.72
2018-08-03T00:25:19.569Z,20.62
2018-08-03T00:27:48.114Z,20.63
2018-08-03T00:30:16.834Z,20.63
2018-08-03T00:32:45.539Z,20.66
2018-08-03T00:35:14.059Z,20.67
2018-08-03T00:37:42.569Z,20.67
2018-08-03T00:40:11.271Z,20.61
2018-08-03T00:42:39.800Z,20.56
2018-08-03T00:45:08.337Z,20.49
2018-08-03T00:47:37.003Z,20.48
2018-08-03T00:50:05.754Z,20.49
2018-08-03T00:52:34.513Z,20.52
2018-08-03T00:55:03.372Z,20.52
2018-08-03T00:57:32.218Z,20.42
2018-08-03T01:00:00.840Z,20.37
2018-08-03T01:02:29.374Z,20.36
2018-08-03T01:04:57.958Z,20.32
2018-08-03T01:07:26.471Z,20.21
2018-08-03T01:09:55.101Z,20.25
2018-08-03T01:12:23.632Z,20.27
2018-08-03T01:14:52.172Z,20.24
2018-08-03T01:17:20.700Z,20.23
2018-08-03T01:19:49.327Z,20.24
2018-08-03T01:22:18.242Z,20.20
2018-08-03T01:24:46.860Z,20.18
2018-08-03T01:27:15.402Z,20.19
2018-08-03T01:29:44.082Z,20.13
2018-08-03T01:32:12.597Z,20.11
2018-08-03T01:34:41.160Z,20.08
2018-08-03T01:37:09.673Z,20.01
2018-08-03T01:39:38.721Z,20.12
2018-08-03T01:42:07.295Z,20.14
2018-08-03T01:44:35.912Z,19.98
2018-08-03T01:47:04.493Z,19.87
2018-08-03T01:49:33.091Z,19.73
2018-08-03T01:52:01.637Z,19.72
2018-08-03T01:54:30.221Z,19.78
2018-08-03T01:56:58.738Z,19.68
2018-08-03T01:59:27.284Z,19.62
2018-08-03T02:01:55.907Z,19.58
2018-08-03T02:04:24.771Z,19.68
2018-08-03T02:06:53.393Z,19.70
2018-08-03T02:09:21.899Z,19.74
2018-08-03T02:11:50.615Z,19.67
2018-08-03T02:14:19.250Z,19.63
2018-08-03T02:16:47.748Z,19.69
2018-08-03T02:19:16.240Z,19.65
2018-08-03T02:21:44.770Z,19.65
2018-08-03T02:24:13.304Z,19.71
2018-08-03T02:26:41.767Z,19.67
2018-08-03T02:29:10.377Z,19.65
2018-08-03T02:31:38.944Z,19.58
2018-08-03T02:34:07.604Z,19.55
2018-08-03T02:36:36.088Z,19.46
2018-08-03T02:39:07.795Z,19.40
2018-08-03T02:41:36.438Z,19.41
2018-08-03T02:44:04.995Z,19.28
2018-08-03T02:46:33.544Z,19.33
2018-08-03T02:49:02.537Z,19.22
2018-08-03T02:51:31.200Z,19.32
2018-08-03T02:53:59.788Z,19.22
2018-08-03T02:56:28.334Z,19.24
2018-08-03T02:58:56.869Z,19.25
2018-08-03T03:01:25.397Z,19.19
2018-08-03T03:03:54.466Z,19.17
2018-08-03T03:06:23.077Z,19.19
2018-08-03T03:08:51.570Z,19.21
2018-08-03T03:11:20.110Z,19.07
2018-08-03T03:13:48.736Z,19.09
2018-08-03T03:16:17.283Z,19.05
2018-08-03T03:18:45.780Z,19.03
2018-08-03T03:21:14.623Z,18.99
2018-08-03T03:23:43.189Z,18.97
2018-08-03T03:26:11.741Z,18.98
2018-08-03T03:28:40.355Z,18.94
2018-08-03T03:31:08.929Z,18.89
2018-08-03T03:33:37.602Z,18.90
2018-08-03T03:36:06.222Z,18.85
2018-08-03T03:38:34.708Z,18.82
2018-08-03T03:41:03.381Z,18.82
2018-08-03T03:43:31.892Z,18.81
2018-08-03T03:46:00.412Z,18.74
2018-08-03T03:48:29.141Z,18.68
2018-08-03T03:50:57.691Z,18.68
2018-08-03T03:53:26.379Z,18.66
2018-08-03T03:55:54.894Z,18.60
2018-08-03T03:58:26.140Z,18.53
2018-08-03T04:00:54.908Z,18.45
2018-08-03T04:03:24.007Z,18.27
2018-08-03T04:05:53.014Z,18.34
2018-08-03T04:08:21.611Z,18.27
2018-08-03T04:10:50.254Z,18.23
2018-08-03T04:13:18.787Z,18.27
2018-08-03T04:15:51.383Z,18.40
2018-08-03T04:18:22.700Z,18.44
2018-08-03T04:20:52.580Z,18.61
2018-08-03T04:23:21.593Z,18.62
2018-08-03T04:25:50.390Z,18.71
2018-08-03T04:28:18.889Z,18.69
2018-08-03T04:30:47.397Z,18.73
2018-08-03T04:33:16.105Z,18.78
2018-08-03T04:35:44.660Z,18.73
2018-08-03T04:38:13.226Z,18.74
2018-08-03T04:40:41.753Z,18.64
2018-08-03T04:43:10.292Z,18.63
2018-08-03T04:45:38.860Z,18.61
2018-08-03T04:48:07.539Z,18.65
2018-08-03T04:50:36.154Z,18.73
2018-08-03T04:53:04.709Z,18.76
2018-08-03T04:55:33.563Z,18.72
2018-08-03T04:58:02.115Z,18.76
2018-08-03T05:00:30.669Z,18.70
2018-08-03T05:02:59.379Z,18.65
2018-08-03T05:05:27.950Z,18.77
2018-08-03T05:07:56.447Z,18.93
2018-08-03T05:10:25.002Z,18.98
2018-08-03T05:12:53.587Z,19.05
2018-08-03T05:15:22.212Z,19.21
2018-08-03T05:17:50.700Z,19.22
2018-08-03T05:20:19.336Z,19.44
2018-08-03T05:22:47.851Z,19.44
2018-08-03T05:25:16.359Z,19.41
2018-08-03T05:27:44.912Z,19.52
2018-08-03T05:30:13.454Z,19.50
2018-08-03T05:32:42.153Z,19.53
2018-08-03T05:35:10.756Z,19.71
2018-08-03T05:37:39.316Z,19.72
2018-08-03T05:40:07.985Z,19.81
2018-08-03T05:42:36.858Z,19.93
2018-08-03T05:45:06.650Z,20.09
2018-08-03T05:47:35.293Z,20.17
2018-08-03T05:50:04.070Z,20.18
2018-08-03T05:52:32.681Z,20.24
2018-08-03T05:55:01.247Z,20.18
2018-08-03T05:57:29.871Z,20.20
2018-08-03T05:59:58.760Z,20.24
2018-08-03T06:02:27.376Z,20.26
2018-08-03T06:04:55.967Z,20.27
2018-08-03T06:07:24.574Z,20.38
2018-08-03T06:09:53.191Z,20.51
2018-08-03T06:12:21.729Z,20.54
2018-08-03T06:14:50.313Z,20.49
2018-08-03T06:17:18.834Z,20.62
2018-08-03T06:19:47.494Z,20.93
2018-08-03T06:22:16.048Z,21.10
2018-08-03T06:24:44.669Z,21.34
2018-08-03T06:27:13.237Z,21.54
2018-08-03T06:29:42.124Z,21.61
2018-08-03T06:32:10.580Z,21.65
2018-08-03T06:34:39.146Z,21.65
2018-08-03T06:37:08.817Z,21.76
2018-08-03T06:39:37.343Z,21.94
2018-08-03T06:42:05.872Z,21.67
2018-08-03T06:44:34.478Z,21.82
2018-08-03T06:47:02.964Z,21.87
2018-08-03T06:49:31.640Z,22.09
2018-08-03T06:52:00.124Z,22.35
2018-08-03T06:54:28.753Z,22.53
2018-08-03T06:56:57.339Z,22.71
2018-08-03T06:59:25.980Z,22.63
2018-08-03T07:01:54.835Z,22.65
2018-08-03T07:04:24.281Z,22.68
2018-08-03T07:06:52.900Z,22.79
2018-08-03T07:09:21.750Z,23.06
2018-08-03T07:11:50.269Z,23.03
2018-08-03T07:14:19.036Z,22.89
2018-08-03T07:16:47.718Z,22.96
2018-08-03T07:19:16.254Z,23.22
2018-08-03T07:21:44.817Z,23.48
2018-08-03T07:24:13.349Z,23.57
2018-08-03T07:26:41.856Z,23.68
2018-08-03T07:29:10.483Z,23.78
2018-08-03T07:31:39.031Z,23.90
2018-08-03T07:34:07.597Z,23.87
2018-08-03T07:36:36.175Z,24.22
2018-08-03T07:39:07.319Z,24.39
2018-08-03T07:41:35.896Z,24.49
2018-08-03T07:44:04.493Z,24.70
2018-08-03T07:46:33.037Z,24.79
2018-08-03T07:49:01.573Z,24.82
2018-08-03T07:51:30.081Z,25.00
2018-08-03T07:53:58.628Z,25.00
2018-08-03T07:56:27.136Z,25.29
2018-08-03T07:58:55.668Z,25.51
2018-08-03T08:01:24.447Z,25.61
2018-08-03T08:03:52.941Z,25.91
2018-08-03T08:06:21.435Z,26.12
2018-08-03T08:08:50.112Z,26.05
2018-08-03T08:11:18.600Z,26.23
2018-08-03T08:13:47.536Z,26.46
2018-08-03T08:16:16.177Z,26.36
2018-08-03T08:18:44.705Z,26.50
2018-08-03T08:21:13.334Z,26.52
2018-08-03T08:23:41.940Z,26.88
2018-08-03T08:26:10.524Z,26.99
2018-08-03T08:28:39.043Z,27.00
2018-08-03T08:31:07.855Z,27.10
2018-08-03T08:33:36.476Z,26.88
2018-08-03T08:36:05.012Z,27.20
2018-08-03T08:38:33.663Z,27.28
2018-08-03T08:41:02.225Z,27.36
2018-08-03T08:43:30.809Z,27.72
2018-08-03T08:45:59.275Z,27.80
2018-08-03T08:48:27.807Z,27.96
2018-08-03T08:50:56.754Z,27.77
2018-08-03T08:53:25.240Z,27.63
2018-08-03T08:55:53.831Z,28.08
2018-08-03T08:58:22.423Z,27.83
2018-08-03T09:00:51.175Z,28.07
2018-08-03T09:03:19.782Z,28.40
2018-08-03T09:05:48.384Z,28.53
2018-08-03T09:08:17.022Z,28.81
2018-08-03T09:10:45.597Z,28.57
2018-08-03T09:13:14.361Z,28.50
2018-08-03T09:15:43.322Z,28.40
2018-08-03T09:18:11.882Z,28.39
2018-08-03T09:20:40.452Z,28.78
2018-08-03T09:23:09.038Z,28.87
2018-08-03T09:25:38.218Z,29.20
2018-08-03T09:28:07.271Z,28.86
2018-08-03T09:30:35.932Z,29.06
2018-08-03T09:33:04.842Z,29.00
2018-08-03T09:35:33.472Z,29.20
2018-08-03T09:38:02.037Z,29.22
2018-08-03T09:40:30.618Z,29.29
2018-08-03T09:42:59.275Z,29.47
2018-08-03T09:45:27.783Z,29.92
2018-08-03T09:47:56.320Z,29.81
2018-08-03T09:50:24.856Z,30.19
2018-08-03T09:52:53.359Z,30.41
2018-08-03T09:55:21.948Z,30.38
2018-08-03T09:57:50.620Z,30.33
2018-08-03T10:00:23.608Z,30.17
2018-08-03T10:02:52.115Z,30.16
2018-08-03T10:05:20.683Z,30.19
2018-08-03T10:07:49.233Z,30.34
2018-08-03T10:10:17.805Z,30.42
2018-08-03T10:12:46.395Z,30.39
2018-08-03T10:15:14.905Z,30.67
2018-08-03T10:17:43.408Z,30.91
2018-08-03T10:20:11.975Z,30.82
2018-08-03T10:22:40.559Z,30.47
2018-08-03T10:25:09.231Z,30.48
2018-08-03T10:27:37.927Z,30.46
2018-08-03T10:30:06.761Z,30.59
2018-08-03T10:32:36.095Z,30.78
2018-08-03T10:35:05.262Z,30.95
2018-08-03T10:37:33.744Z,31.23
2018-08-03T10:40:02.272Z,31.05
2018-08-03T10:42:30.833Z,31.28
2018-08-03T10:44:59.472Z,31.12
2018-08-03T10:47:27.967Z,31.07
2018-08-03T10:49:56.570Z,31.32
2018-08-03T10:52:25.163Z,31.02
2018-08-03T10:54:54.320Z,31.27
2018-08-03T10:57:22.911Z,30.98
2018-08-03T10:59:51.599Z,31.33
2018-08-03T11:02:20.171Z,31.58
2018-08-03T11:04:48.958Z,31.53
2018-08-03T11:07:17.593Z,31.55
2018-08-03T11:09:46.223Z,31.67
2018-08-03T11:12:15.299Z,31.24
2018-08-03T11:14:43.842Z,31.87
2018-08-03T11:17:12.378Z,32.02
2018-08-03T11:19:41.092Z,32.05
2018-08-03T11:22:09.632Z,32.18
2018-08-03T11:24:38.233Z,32.36
2018-08-03T11:27:07.060Z,32.51
2018-08-03T11:29:35.682Z,32.33
2018-08-03T11:32:04.243Z,32.08
2018-08-03T11:34:32.969Z,31.90
2018-08-03T11:37:01.600Z,31.89
2018-08-03T11:39:30.110Z,32.21
2018-08-03T11:41:58.721Z,32.54
2018-08-03T11:44:27.286Z,32.79
2018-08-03T11:46:55.863Z,32.59
2018-08-03T11:49:24.633Z,32.93
2018-08-03T11:51:53.232Z,33.10
2018-08-03T11:54:21.747Z,32.94
2018-08-03T11:56:50.282Z,33.04
2018-08-03T11:59:19.539Z,33.16
2018-08-03T12:01:48.079Z,33.23
2018-08-03T12:04:16.621Z,32.69
2018-08-03T12:06:45.156Z,33.00
2018-08-03T12:09:13.768Z,33.38
2018-08-03T12:11:42.309Z,33.38
2018-08-03T12:14:11.566Z,33.72
2018-08-03T12:16:40.099Z,33.25
2018-08-03T12:19:08.891Z,32.92
2018-08-03T12:21:37.711Z,32.37
2018-08-03T12:24:06.467Z,32.65
2018-08-03T12:26:35.170Z,32.77
2018-08-03T12:29:03.810Z,33.32
2018-08-03T12:31:32.461Z,33.27
2018-08-03T12:34:01.127Z,33.18
2018-08-03T12:36:29.911Z,33.61
2018-08-03T12:38:58.468Z,34.54
2018-08-03T12:41:27.172Z,33.89
2018-08-03T12:43:55.690Z,34.24
2018-08-03T12:46:24.254Z,34.63
2018-08-03T12:48:53.112Z,34.34
2018-08-03T12:51:21.705Z,35.41
2018-08-03T12:53:50.252Z,35.63
2018-08-03T12:56:18.741Z,37.52
2018-08-03T12:58:47.641Z,36.80
2018-08-03T13:01:16.257Z,36.95
2018-08-03T13:03:44.855Z,36.90
2018-08-03T13:06:13.516Z,37.22
2018-08-03T13:08:42.309Z,37.52
2018-08-03T13:11:11.089Z,37.24
2018-08-03T13:13:40.281Z,34.83
2018-08-03T13:16:08.872Z,35.84
2018-08-03T13:18:37.680Z,36.02
2018-08-03T13:21:17.398Z,36.09
2018-08-03T13:23:56.468Z,35.07
2018-08-03T13:26:25.785Z,34.48
2018-08-03T13:28:54.920Z,33.80
2018-08-03T13:31:24.806Z,34.39
2018-08-03T13:33:53.461Z,34.74
2018-08-03T13:36:23.226Z,34.60
2018-08-03T13:38:52.059Z,35.72
2018-08-03T13:41:20.661Z,36.92
2018-08-03T13:43:49.226Z,37.79
2018-08-03T13:46:18.200Z,37.00
2018-08-03T13:48:47.907Z,35.97
2018-08-03T13:51:17.582Z,37.86
2018-08-03T13:53:47.011Z,38.94
2018-08-03T13:56:16.225Z,38.05
2018-08-03T13:58:45.987Z,36.16
2018-08-03T14:01:25.852Z,38.21
2018-08-03T14:03:54.799Z,37.56
2018-08-03T14:06:23.297Z,37.43
2018-08-03T14:08:51.872Z,39.72
2018-08-03T14:11:20.712Z,39.93
2018-08-03T14:13:49.345Z,40.28
2018-08-03T14:16:17.933Z,38.35
2018-08-03T14:18:47.831Z,38.84
2018-08-03T14:21:16.609Z,39.26
2018-08-03T14:23:45.249Z,37.30
2018-08-03T14:26:13.917Z,37.52
2018-08-03T14:28:42.737Z,37.52
2018-08-03T14:31:11.416Z,36.70
2018-08-03T14:33:40.643Z,35.82
2018-08-03T14:36:09.302Z,37.80
2018-08-03T14:38:37.954Z,36.72
2018-08-03T14:41:06.658Z,36.62
2018-08-03T14:43:35.278Z,37.96
2018-08-03T14:46:04.005Z,36.16
2018-08-03T14:48:32.812Z,36.95
2018-08-03T14:51:02.863Z,38.20
2018-08-03T14:53:31.444Z,38.67
2018-08-03T14:55:59.975Z,38.06
2018-08-03T14:58:28.534Z,38.65
2018-08-03T15:00:57.186Z,37.95
2018-08-03T15:03:26.404Z,38.69
2018-08-03T15:05:55.112Z,37.05
2018-08-03T15:08:23.640Z,38.59
2018-08-03T15:10:52.501Z,37.92
2018-08-03T15:13:21.097Z,38.19
2018-08-03T15:15:49.699Z,38.20
2018-08-03T15:18:18.630Z,37.79
2018-08-03T15:20:47.149Z,36.49
2018-08-03T15:23:15.786Z,37.00
2018-08-03T15:25:44.376Z,36.07
2018-08-03T15:28:12.990Z,37.94
2018-08-03T15:30:41.580Z,37.40
2018-08-03T15:33:10.174Z,36.38
2018-08-03T15:35:38.714Z,37.43
2018-08-03T15:38:07.523Z,35.89
2018-08-03T15:40:36.365Z,36.99
2018-08-03T15:43:05.359Z,37.21
2018-08-03T15:45:35.321Z,36.45
2018-08-03T15:48:04.123Z,38.57
2018-08-03T15:50:32.765Z,37.31
2018-08-03T15:53:01.525Z,37.35
2018-08-03T15:55:30.116Z,39.48
2018-08-03T15:57:58.672Z,37.81
2018-08-03T16:00:27.302Z,35.68
2018-08-03T16:02:55.937Z,36.71
2018-08-03T16:05:24.516Z,36.58
2018-08-03T16:07:53.127Z,36.69
2018-08-03T16:10:21.656Z,36.40
2018-08-03T16:12:50.242Z,36.04
2018-08-03T16:15:18.866Z,37.92
2018-08-03T16:17:47.464Z,37.65
2018-08-03T16:20:16.052Z,39.19
2018-08-03T16:22:44.627Z,39.25
2018-08-03T16:25:13.199Z,36.81
2018-08-03T16:27:41.856Z,36.60
2018-08-03T16:30:11.009Z,37.17
2018-08-03T16:32:40.070Z,38.70
2018-08-03T16:35:09.506Z,38.79
2018-08-03T16:37:38.018Z,38.55
2018-08-03T16:40:07.820Z,37.02
2018-08-03T16:42:36.710Z,37.44
2018-08-03T16:45:06.281Z,37.47
2018-08-03T16:47:35.162Z,36.21
2018-08-03T16:50:03.809Z,34.95
2018-08-03T16:52:36.008Z,35.31
2018-08-03T16:55:04.628Z,36.14
2018-08-03T16:57:33.326Z,36.15
2018-08-03T17:00:02.282Z,35.81
2018-08-03T17:02:30.854Z,35.97
2018-08-03T17:04:59.424Z,35.25
2018-08-03T17:07:28.094Z,35.15
2018-08-03T17:09:56.695Z,35.31
2018-08-03T17:12:25.306Z,34.98
2018-08-03T17:14:53.811Z,35.48
2018-08-03T17:17:22.512Z,34.93
2018-08-03T17:19:51.260Z,34.38
2018-08-03T17:22:20.798Z,34.94
2018-08-03T17:24:49.315Z,35.43
2018-08-03T17:27:17.909Z,35.15
2018-08-03T17:29:46.453Z,34.07
2018-08-03T17:32:15.383Z,33.48
2018-08-03T17:34:43.988Z,33.46
2018-08-03T17:37:12.557Z,33.38
2018-08-03T17:39:41.105Z,33.87
2018-08-03T17:42:09.653Z,34.47
2018-08-03T17:44:38.401Z,34.34
2018-08-03T17:47:06.967Z,35.34
2018-08-03T17:49:35.720Z,34.64
2018-08-03T17:52:04.319Z,33.77
2018-08-03T17:54:32.860Z,33.91
2018-08-03T17:57:01.393Z,33.72
2018-08-03T17:59:30.000Z,33.35
2018-08-03T18:01:58.525Z,34.53
2018-08-03T18:04:27.097Z,33.48
2018-08-03T18:06:56.933Z,32.99
2018-08-03T18:09:25.668Z,32.48
2018-08-03T18:11:54.192Z,33.15
2018-08-03T18:14:22.847Z,33.06
2018-08-03T18:16:51.409Z,31.56
2018-08-03T18:19:19.989Z,31.81
2018-08-03T18:21:48.640Z,31.94
2018-08-03T18:24:17.274Z,31.30
2018-08-03T18:26:45.814Z,31.04
2018-08-03T18:29:14.501Z,30.58
2018-08-03T18:31:43.043Z,30.34
2018-08-03T18:34:11.641Z,30.01
2018-08-03T18:36:40.197Z,30.08
2018-08-03T18:39:10.486Z,29.79
2018-08-03T18:41:39.300Z,29.45
2018-08-03T18:44:08.095Z,29.45
2018-08-03T18:46:36.686Z,29.55
2018-08-03T18:49:05.299Z,29.59
2018-08-03T18:51:34.036Z,29.11
2018-08-03T18:54:02.656Z,28.93
2018-08-03T18:56:31.268Z,28.90
2018-08-03T18:58:59.816Z,28.79
2018-08-03T19:01:28.487Z,28.50
2018-08-03T19:03:57.146Z,28.39
2018-08-03T19:06:25.729Z,28.23
2018-08-03T19:08:54.346Z,28.07
2018-08-03T19:11:22.931Z,28.00
2018-08-03T19:13:51.694Z,27.81
2018-08-03T19:16:20.246Z,27.76
2018-08-03T19:18:48.819Z,27.62
2018-08-03T19:21:17.620Z,27.62
2018-08-03T19:23:46.232Z,27.36
2018-08-03T19:26:14.891Z,27.26
2018-08-03T19:28:44.349Z,27.09
2018-08-03T19:31:12.986Z,27.14
2018-08-03T19:33:41.533Z,27.10
2018-08-03T19:36:10.375Z,26.92
2018-08-03T19:38:39.035Z,26.85
2018-08-03T19:41:07.594Z,26.77
2018-08-03T19:43:36.146Z,26.74
2018-08-03T19:46:04.966Z,26.65
2018-08-03T19:48:33.779Z,26.50
2018-08-03T19:51:02.380Z,26.38
2018-08-03T19:53:30.984Z,26.51
2018-08-03T19:55:59.643Z,26.42
2018-08-03T19:58:28.417Z,26.27
2018-08-03T20:00:57.004Z,26.24
2018-08-03T20:03:31.889Z,26.12
2018-08-03T20:06:00.504Z,26.11
2018-08-03T20:08:29.022Z,25.99
2018-08-03T20:10:57.672Z,25.90
2018-08-03T20:13:26.388Z,25.82
2018-08-03T20:15:54.944Z,25.83
2018-08-03T20:18:23.587Z,25.61
2018-08-03T20:20:52.176Z,25.56
2018-08-03T20:23:20.711Z,25.49
2018-08-03T20:25:49.336Z,25.38
2018-08-03T20:28:18.046Z,25.39
2018-08-03T20:30:46.766Z,25.25
2018-08-03T20:33:15.363Z,25.18
2018-08-03T20:35:44.069Z,25.14
2018-08-03T20:38:12.759Z,25.02
2018-08-03T20:40:41.433Z,24.90
2018-08-03T20:43:10.079Z,24.84
2018-08-03T20:45:38.691Z,24.79
2018-08-03T20:48:07.238Z,24.70
2018-08-03T20:50:35.801Z,24.69
2018-08-03T20:53:04.667Z,24.62
2018-08-03T20:55:33.505Z,24.52
2018-08-03T20:58:02.136Z,24.47
2018-08-03T21:00:30.744Z,24.41
2018-08-03T21:02:59.382Z,24.32
2018-08-03T21:05:28.038Z,24.27
2018-08-03T21:07:56.540Z,24.29
2018-08-03T21:10:25.161Z,24.12
2018-08-03T21:12:53.948Z,24.06
2018-08-03T21:15:22.514Z,23.88
2018-08-03T21:17:51.074Z,23.84
2018-08-03T21:20:19.576Z,23.81
2018-08-03T21:22:48.120Z,23.73
2018-08-03T21:25:16.806Z,23.75
2018-08-03T21:27:45.325Z,23.73
2018-08-03T21:30:13.887Z,23.69
2018-08-03T21:32:42.702Z,23.63
2018-08-03T21:35:11.224Z,23.55
2018-08-03T21:37:39.751Z,23.46
2018-08-03T21:40:08.337Z,23.54
2018-08-03T21:42:36.871Z,23.52
2018-08-03T21:45:06.080Z,23.42
2018-08-03T21:47:34.647Z,23.31
2018-08-03T21:50:03.602Z,23.11
2018-08-03T21:52:32.357Z,23.05
2018-08-03T21:55:01.012Z,23.00
2018-08-03T21:57:29.938Z,23.03
2018-08-03T21:59:58.703Z,22.96
2018-08-03T22:02:27.494Z,22.94
2018-08-03T22:04:56.154Z,22.95
2018-08-03T22:07:24.867Z,22.89
2018-08-03T22:09:53.557Z,22.92
2018-08-03T22:12:22.173Z,22.79
2018-08-03T22:14:50.719Z,22.73
2018-08-03T22:17:19.515Z,22.71
2018-08-03T22:19:48.189Z,22.55
2018-08-03T22:22:16.741Z,22.44
2018-08-03T22:24:45.321Z,22.42
2018-08-03T22:27:13.935Z,22.36
2018-08-03T22:29:42.444Z,22.37
2018-08-03T22:32:11.626Z,22.31
2018-08-03T22:34:40.132Z,22.27
2018-08-03T22:37:08.732Z,22.26
2018-08-03T22:39:37.220Z,22.18
2018-08-03T22:42:06.083Z,22.23
2018-08-03T22:44:34.698Z,22.05
2018-08-03T22:47:03.222Z,21.95
2018-08-03T22:49:31.787Z,21.92
2018-08-03T22:52:00.340Z,21.79
2018-08-03T22:54:29.124Z,21.70
2018-08-03T22:56:57.743Z,21.65
2018-08-03T22:59:26.317Z,21.71
2018-08-03T23:01:54.929Z,21.63
2018-08-03T23:04:23.601Z,21.68
2018-08-03T23:06:52.170Z,21.67
2018-08-03T23:09:20.705Z,21.59
2018-08-03T23:11:49.308Z,21.44
2018-08-03T23:14:18.035Z,21.45
2018-08-03T23:16:46.614Z,21.47
2018-08-03T23:19:15.304Z,21.36
2018-08-03T23:21:44.196Z,21.35
2018-08-03T23:24:12.817Z,21.38
2018-08-03T23:26:41.465Z,21.21
2018-08-03T23:29:09.979Z,21.27
2018-08-03T23:31:38.678Z,21.16
2018-08-03T23:34:07.320Z,21.12
2018-08-03T23:36:35.905Z,21.04
2018-08-03T23:39:06.266Z,20.98
2018-08-03T23:41:34.841Z,21.03
2018-08-03T23:44:03.375Z,20.88
2018-08-03T23:46:31.904Z,20.95
2018-08-03T23:49:00.549Z,20.98
2018-08-03T23:51:29.053Z,20.85
2018-08-03T23:53:57.627Z,20.84
2018-08-03T23:56:26.414Z,20.80
2018-08-03T23:58:54.958Z,20.71
